sensor_id;sensor_type;location;lat;lon;timestamp;P1;durP1;ratioP1;P2;durP2;ratioP2
32824;SDS011;51060;42.640;24.356;2023-03-23T00:02:11;10.67;;;9.43;;
32824;SDS011;51060;42.640;24.356;2023-03-23T00:04:37;12.17;;;8.80;;
32824;SDS011;51060;42.640;24.356;2023-03-23T00:07:02;11.43;;;8.57;;
32824;SDS011;51060;42.640;24.356;2023-03-23T00:09:28;18.13;;;13.20;;
32824;SDS011;51060;42.640;24.356;2023-03-23T00:11:55;22.33;;;15.43;;
32824;SDS011;51060;42.640;24.356;2023-03-23T00:14:22;20.30;;;14.30;;
32824;SDS011;51060;42.640;24.356;2023-03-23T00:16:50;14.70;;;11.37;;
32824;SDS011;51060;42.640;24.356;2023-03-23T00:19:15;15.93;;;13.40;;
32824;SDS011;51060;42.640;24.356;2023-03-23T00:21:44;23.80;;;17.93;;
32824;SDS011;51060;42.640;24.356;2023-03-23T00:26:37;25.43;;;15.20;;
32824;SDS011;51060;42.640;24.356;2023-03-23T00:29:15;9.90;;;7.63;;
32824;SDS011;51060;42.640;24.356;2023-03-23T00:31:44;17.00;;;12.27;;
32824;SDS011;51060;42.640;24.356;2023-03-23T00:34:14;17.43;;;13.63;;
32824;SDS011;51060;42.640;24.356;2023-03-23T00:36:44;20.13;;;14.30;;
32824;SDS011;51060;42.640;24.356;2023-03-23T00:39:10;21.93;;;16.17;;
32824;SDS011;51060;42.640;24.356;2023-03-23T00:41:36;20.73;;;15.07;;
32824;SDS011;51060;42.640;24.356;2023-03-23T00:44:03;20.33;;;15.50;;
32824;SDS011;51060;42.640;24.356;2023-03-23T00:46:29;20.67;;;14.23;;
32824;SDS011;51060;42.640;24.356;2023-03-23T00:48:55;18.37;;;13.33;;
32824;SDS011;51060;42.640;24.356;2023-03-23T00:51:22;18.63;;;14.57;;
32824;SDS011;51060;42.640;24.356;2023-03-23T00:53:48;19.83;;;12.93;;
32824;SDS011;51060;42.640;24.356;2023-03-23T00:56:14;17.87;;;12.40;;
32824;SDS011;51060;42.640;24.356;2023-03-23T00:58:40;15.50;;;11.50;;
32824;SDS011;51060;42.640;24.356;2023-03-23T01:01:06;18.50;;;12.77;;
32824;SDS011;51060;42.640;24.356;2023-03-23T01:03:32;16.43;;;12.80;;
32824;SDS011;51060;42.640;24.356;2023-03-23T01:06:04;14.87;;;10.83;;
32824;SDS011;51060;42.640;24.356;2023-03-23T01:08:38;12.80;;;8.90;;
32824;SDS011;51060;42.640;24.356;2023-03-23T01:11:10;16.30;;;11.23;;
32824;SDS011;51060;42.640;24.356;2023-03-23T01:13:37;15.50;;;11.20;;
32824;SDS011;51060;42.640;24.356;2023-03-23T01:16:03;12.43;;;10.40;;
32824;SDS011;51060;42.640;24.356;2023-03-23T01:18:29;11.90;;;10.07;;
32824;SDS011;51060;42.640;24.356;2023-03-23T01:20:54;11.07;;;9.23;;
32824;SDS011;51060;42.640;24.356;2023-03-23T01:23:20;11.60;;;9.30;;
32824;SDS011;51060;42.640;24.356;2023-03-23T01:25:45;11.10;;;9.27;;
32824;SDS011;51060;42.640;24.356;2023-03-23T01:28:11;32.30;;;21.43;;
32824;SDS011;51060;42.640;24.356;2023-03-23T01:30:37;28.03;;;19.67;;
32824;SDS011;51060;42.640;24.356;2023-03-23T01:33:02;19.40;;;13.43;;
32824;SDS011;51060;42.640;24.356;2023-03-23T01:35:28;10.83;;;9.10;;
32824;SDS011;51060;42.640;24.356;2023-03-23T01:37:54;10.93;;;8.90;;
32824;SDS011;51060;42.640;24.356;2023-03-23T01:40:19;51.40;;;24.33;;
32824;SDS011;51060;42.640;24.356;2023-03-23T01:42:45;92.60;;;39.70;;
32824;SDS011;51060;42.640;24.356;2023-03-23T01:48:21;18.13;;;13.03;;
32824;SDS011;51060;42.640;24.356;2023-03-23T01:51:10;13.47;;;9.93;;
32824;SDS011;51060;42.640;24.356;2023-03-23T01:53:39;18.77;;;14.23;;
32824;SDS011;51060;42.640;24.356;2023-03-23T01:56:08;17.03;;;12.27;;
32824;SDS011;51060;42.640;24.356;2023-03-23T01:58:37;16.63;;;12.67;;
32824;SDS011;51060;42.640;24.356;2023-03-23T02:01:04;16.50;;;12.67;;
32824;SDS011;51060;42.640;24.356;2023-03-23T02:03:32;17.77;;;13.27;;
32824;SDS011;51060;42.640;24.356;2023-03-23T02:06:00;16.33;;;12.70;;
32824;SDS011;51060;42.640;24.356;2023-03-23T02:08:27;17.93;;;13.17;;
32824;SDS011;51060;42.640;24.356;2023-03-23T02:10:54;22.90;;;14.97;;
32824;SDS011;51060;42.640;24.356;2023-03-23T02:13:20;20.20;;;13.57;;
32824;SDS011;51060;42.640;24.356;2023-03-23T02:15:48;12.77;;;10.17;;
32824;SDS011;51060;42.640;24.356;2023-03-23T02:33:16;11.90;;;8.97;;
32824;SDS011;51060;42.640;24.356;2023-03-23T02:36:00;16.87;;;12.77;;
32824;SDS011;51060;42.640;24.356;2023-03-23T02:38:35;18.97;;;13.27;;
32824;SDS011;51060;42.640;24.356;2023-03-23T02:41:08;15.60;;;11.63;;
32824;SDS011;51060;42.640;24.356;2023-03-23T02:43:38;14.27;;;10.07;;
32824;SDS011;51060;42.640;24.356;2023-03-23T02:46:06;14.63;;;10.50;;
32824;SDS011;51060;42.640;24.356;2023-03-23T02:48:34;13.67;;;10.80;;
32824;SDS011;51060;42.640;24.356;2023-03-23T02:51:00;15.30;;;12.37;;
32824;SDS011;51060;42.640;24.356;2023-03-23T02:53:27;15.23;;;11.90;;
32824;SDS011;51060;42.640;24.356;2023-03-23T02:55:54;18.13;;;12.70;;
32824;SDS011;51060;42.640;24.356;2023-03-23T02:58:21;19.00;;;13.83;;
32824;SDS011;51060;42.640;24.356;2023-03-23T03:00:48;18.60;;;14.23;;
32824;SDS011;51060;42.640;24.356;2023-03-23T03:03:15;20.30;;;14.57;;
32824;SDS011;51060;42.640;24.356;2023-03-23T03:05:44;23.47;;;18.57;;
32824;SDS011;51060;42.640;24.356;2023-03-23T03:10:50;27.60;;;18.93;;
32824;SDS011;51060;42.640;24.356;2023-03-23T03:21:37;22.40;;;16.70;;
32824;SDS011;51060;42.640;24.356;2023-03-23T03:24:05;19.33;;;15.83;;
32824;SDS011;51060;42.640;24.356;2023-03-23T03:26:36;17.80;;;14.77;;
32824;SDS011;51060;42.640;24.356;2023-03-23T03:29:04;26.93;;;19.60;;
32824;SDS011;51060;42.640;24.356;2023-03-23T03:31:32;29.77;;;21.50;;
32824;SDS011;51060;42.640;24.356;2023-03-23T03:34:02;27.43;;;20.27;;
32824;SDS011;51060;42.640;24.356;2023-03-23T03:36:29;24.20;;;18.07;;
32824;SDS011;51060;42.640;24.356;2023-03-23T03:39:03;20.70;;;14.57;;
32824;SDS011;51060;42.640;24.356;2023-03-23T03:41:35;21.23;;;15.03;;
32824;SDS011;51060;42.640;24.356;2023-03-23T03:44:05;24.33;;;18.73;;
32824;SDS011;51060;42.640;24.356;2023-03-23T03:46:32;30.03;;;22.10;;
32824;SDS011;51060;42.640;24.356;2023-03-23T03:49:00;42.03;;;28.23;;
32824;SDS011;51060;42.640;24.356;2023-03-23T03:51:28;34.20;;;23.03;;
32824;SDS011;51060;42.640;24.356;2023-03-23T03:53:54;29.30;;;21.33;;
32824;SDS011;51060;42.640;24.356;2023-03-23T03:56:21;90.57;;;57.47;;
32824;SDS011;51060;42.640;24.356;2023-03-23T03:58:47;44.33;;;33.50;;
32824;SDS011;51060;42.640;24.356;2023-03-23T04:01:13;36.60;;;25.97;;
32824;SDS011;51060;42.640;24.356;2023-03-23T04:03:41;23.67;;;17.87;;
32824;SDS011;51060;42.640;24.356;2023-03-23T04:06:07;22.90;;;18.23;;
32824;SDS011;51060;42.640;24.356;2023-03-23T04:08:33;26.50;;;18.23;;
32824;SDS011;51060;42.640;24.356;2023-03-23T04:11:00;25.10;;;20.10;;
32824;SDS011;51060;42.640;24.356;2023-03-23T04:13:26;32.40;;;23.17;;
32824;SDS011;51060;42.640;24.356;2023-03-23T04:15:52;26.03;;;19.47;;
32824;SDS011;51060;42.640;24.356;2023-03-23T04:18:17;26.83;;;18.90;;
32824;SDS011;51060;42.640;24.356;2023-03-23T04:20:45;31.73;;;23.17;;
32824;SDS011;51060;42.640;24.356;2023-03-23T04:23:15;22.53;;;16.87;;
32824;SDS011;51060;42.640;24.356;2023-03-23T04:25:50;31.67;;;21.50;;
32824;SDS011;51060;42.640;24.356;2023-03-23T04:28:18;49.20;;;33.03;;
32824;SDS011;51060;42.640;24.356;2023-03-23T04:30:48;71.47;;;42.80;;
32824;SDS011;51060;42.640;24.356;2023-03-23T04:33:18;66.20;;;41.80;;
32824;SDS011;51060;42.640;24.356;2023-03-23T04:35:44;68.23;;;43.00;;
32824;SDS011;51060;42.640;24.356;2023-03-23T04:38:14;44.20;;;29.03;;
32824;SDS011;51060;42.640;24.356;2023-03-23T04:40:41;36.73;;;25.60;;
32824;SDS011;51060;42.640;24.356;2023-03-23T04:43:09;35.77;;;29.47;;
32824;SDS011;51060;42.640;24.356;2023-03-23T04:45:36;39.60;;;30.57;;
32824;SDS011;51060;42.640;24.356;2023-03-23T04:48:03;51.10;;;40.17;;
32824;SDS011;51060;42.640;24.356;2023-03-23T04:50:30;49.77;;;36.07;;
32824;SDS011;51060;42.640;24.356;2023-03-23T04:53:01;59.50;;;42.87;;
32824;SDS011;51060;42.640;24.356;2023-03-23T04:55:31;59.67;;;42.20;;
32824;SDS011;51060;42.640;24.356;2023-03-23T04:58:06;68.57;;;47.00;;
32824;SDS011;51060;42.640;24.356;2023-03-23T05:00:33;44.73;;;33.30;;
32824;SDS011;51060;42.640;24.356;2023-03-23T05:02:59;44.13;;;32.53;;
32824;SDS011;51060;42.640;24.356;2023-03-23T05:05:26;41.00;;;30.33;;
32824;SDS011;51060;42.640;24.356;2023-03-23T05:07:52;46.03;;;33.00;;
32824;SDS011;51060;42.640;24.356;2023-03-23T05:10:18;26.27;;;20.87;;
32824;SDS011;51060;42.640;24.356;2023-03-23T05:12:46;44.33;;;29.43;;
32824;SDS011;51060;42.640;24.356;2023-03-23T05:15:13;62.97;;;36.60;;
32824;SDS011;51060;42.640;24.356;2023-03-23T05:17:40;45.43;;;31.23;;
32824;SDS011;51060;42.640;24.356;2023-03-23T05:20:15;49.60;;;35.53;;
32824;SDS011;51060;42.640;24.356;2023-03-23T05:22:50;89.47;;;57.50;;
32824;SDS011;51060;42.640;24.356;2023-03-23T05:25:17;62.77;;;45.30;;
32824;SDS011;51060;42.640;24.356;2023-03-23T05:27:46;56.60;;;42.43;;
32824;SDS011;51060;42.640;24.356;2023-03-23T05:30:17;50.60;;;39.37;;
32824;SDS011;51060;42.640;24.356;2023-03-23T05:32:44;53.60;;;38.77;;
32824;SDS011;51060;42.640;24.356;2023-03-23T05:35:11;61.63;;;45.10;;
32824;SDS011;51060;42.640;24.356;2023-03-23T05:37:37;55.37;;;39.40;;
32824;SDS011;51060;42.640;24.356;2023-03-23T05:40:03;63.33;;;44.63;;
32824;SDS011;51060;42.640;24.356;2023-03-23T05:42:32;63.83;;;43.20;;
32824;SDS011;51060;42.640;24.356;2023-03-23T05:44:59;76.10;;;53.20;;
32824;SDS011;51060;42.640;24.356;2023-03-23T05:47:25;51.40;;;36.83;;
32824;SDS011;51060;42.640;24.356;2023-03-23T05:49:51;46.93;;;34.30;;
32824;SDS011;51060;42.640;24.356;2023-03-23T05:52:17;83.30;;;54.80;;
32824;SDS011;51060;42.640;24.356;2023-03-23T05:54:43;70.50;;;48.73;;
32824;SDS011;51060;42.640;24.356;2023-03-23T05:57:10;69.63;;;49.17;;
32824;SDS011;51060;42.640;24.356;2023-03-23T05:59:36;44.50;;;30.47;;
32824;SDS011;51060;42.640;24.356;2023-03-23T06:02:02;71.47;;;49.23;;
32824;SDS011;51060;42.640;24.356;2023-03-23T06:04:28;56.20;;;39.03;;
32824;SDS011;51060;42.640;24.356;2023-03-23T06:06:54;57.30;;;40.67;;
32824;SDS011;51060;42.640;24.356;2023-03-23T06:09:20;51.70;;;38.27;;
32824;SDS011;51060;42.640;24.356;2023-03-23T06:11:46;58.33;;;41.47;;
32824;SDS011;51060;42.640;24.356;2023-03-23T06:14:12;66.47;;;48.43;;
32824;SDS011;51060;42.640;24.356;2023-03-23T06:16:38;67.83;;;51.17;;
32824;SDS011;51060;42.640;24.356;2023-03-23T06:19:03;80.97;;;60.60;;
32824;SDS011;51060;42.640;24.356;2023-03-23T06:21:30;63.90;;;46.40;;
32824;SDS011;51060;42.640;24.356;2023-03-23T06:23:57;55.43;;;41.20;;
32824;SDS011;51060;42.640;24.356;2023-03-23T06:26:28;26.53;;;19.80;;
32824;SDS011;51060;42.640;24.356;2023-03-23T06:28:56;26.33;;;21.47;;
32824;SDS011;51060;42.640;24.356;2023-03-23T06:31:22;9.20;;;7.47;;
32824;SDS011;51060;42.640;24.356;2023-03-23T06:33:49;11.63;;;9.20;;
32824;SDS011;51060;42.640;24.356;2023-03-23T06:36:15;10.13;;;7.87;;
32824;SDS011;51060;42.640;24.356;2023-03-23T06:38:41;11.37;;;8.63;;
32824;SDS011;51060;42.640;24.356;2023-03-23T06:41:07;10.50;;;7.40;;
32824;SDS011;51060;42.640;24.356;2023-03-23T06:43:33;9.37;;;7.53;;
32824;SDS011;51060;42.640;24.356;2023-03-23T06:46:01;9.90;;;8.13;;
32824;SDS011;51060;42.640;24.356;2023-03-23T06:48:29;9.10;;;6.80;;
32824;SDS011;51060;42.640;24.356;2023-03-23T06:50:55;8.87;;;7.97;;
32824;SDS011;51060;42.640;24.356;2023-03-23T06:53:21;10.07;;;8.07;;
32824;SDS011;51060;42.640;24.356;2023-03-23T06:55:47;8.47;;;6.70;;
32824;SDS011;51060;42.640;24.356;2023-03-23T06:58:12;8.53;;;7.20;;
32824;SDS011;51060;42.640;24.356;2023-03-23T07:00:38;7.83;;;6.50;;
32824;SDS011;51060;42.640;24.356;2023-03-23T07:03:05;9.03;;;6.43;;
32824;SDS011;51060;42.640;24.356;2023-03-23T07:05:32;8.53;;;6.97;;
32824;SDS011;51060;42.640;24.356;2023-03-23T07:08:02;6.53;;;5.60;;
32824;SDS011;51060;42.640;24.356;2023-03-23T07:10:28;7.77;;;5.87;;
32824;SDS011;51060;42.640;24.356;2023-03-23T07:12:54;8.33;;;6.83;;
32824;SDS011;51060;42.640;24.356;2023-03-23T07:15:20;7.63;;;6.70;;
32824;SDS011;51060;42.640;24.356;2023-03-23T07:17:48;7.80;;;6.60;;
32824;SDS011;51060;42.640;24.356;2023-03-23T07:20:14;8.00;;;6.63;;
32824;SDS011;51060;42.640;24.356;2023-03-23T07:22:40;7.20;;;6.50;;
32824;SDS011;51060;42.640;24.356;2023-03-23T07:25:06;7.90;;;6.83;;
32824;SDS011;51060;42.640;24.356;2023-03-23T07:27:32;8.50;;;6.87;;
32824;SDS011;51060;42.640;24.356;2023-03-23T07:29:58;8.57;;;6.47;;
32824;SDS011;51060;42.640;24.356;2023-03-23T07:32:24;8.07;;;6.80;;
32824;SDS011;51060;42.640;24.356;2023-03-23T07:34:50;8.77;;;7.73;;
32824;SDS011;51060;42.640;24.356;2023-03-23T07:37:15;12.23;;;9.27;;
32824;SDS011;51060;42.640;24.356;2023-03-23T07:39:42;10.13;;;8.17;;
32824;SDS011;51060;42.640;24.356;2023-03-23T07:42:07;10.60;;;7.40;;
32824;SDS011;51060;42.640;24.356;2023-03-23T07:44:33;8.17;;;7.30;;
32824;SDS011;51060;42.640;24.356;2023-03-23T07:46:59;7.47;;;6.27;;
32824;SDS011;51060;42.640;24.356;2023-03-23T07:49:25;6.73;;;5.17;;
32824;SDS011;51060;42.640;24.356;2023-03-23T07:51:51;7.67;;;6.27;;
32824;SDS011;51060;42.640;24.356;2023-03-23T07:54:17;9.03;;;7.10;;
32824;SDS011;51060;42.640;24.356;2023-03-23T07:56:43;6.27;;;5.40;;
32824;SDS011;51060;42.640;24.356;2023-03-23T07:59:10;7.00;;;5.90;;
32824;SDS011;51060;42.640;24.356;2023-03-23T08:01:37;8.30;;;7.40;;
32824;SDS011;51060;42.640;24.356;2023-03-23T08:04:04;6.27;;;5.40;;
32824;SDS011;51060;42.640;24.356;2023-03-23T08:06:31;5.17;;;4.63;;
32824;SDS011;51060;42.640;24.356;2023-03-23T08:08:58;7.13;;;5.97;;
32824;SDS011;51060;42.640;24.356;2023-03-23T08:11:34;8.07;;;5.73;;
32824;SDS011;51060;42.640;24.356;2023-03-23T08:14:00;6.90;;;5.30;;
32824;SDS011;51060;42.640;24.356;2023-03-23T08:16:25;6.23;;;5.17;;
32824;SDS011;51060;42.640;24.356;2023-03-23T08:18:52;6.33;;;5.13;;
32824;SDS011;51060;42.640;24.356;2023-03-23T08:21:18;5.17;;;4.67;;
32824;SDS011;51060;42.640;24.356;2023-03-23T08:23:43;6.03;;;4.70;;
32824;SDS011;51060;42.640;24.356;2023-03-23T08:26:10;5.37;;;4.70;;
32824;SDS011;51060;42.640;24.356;2023-03-23T08:28:36;5.80;;;4.80;;
32824;SDS011;51060;42.640;24.356;2023-03-23T08:31:09;6.80;;;5.50;;
32824;SDS011;51060;42.640;24.356;2023-03-23T08:33:36;6.40;;;5.70;;
32824;SDS011;51060;42.640;24.356;2023-03-23T08:36:02;6.07;;;5.03;;
32824;SDS011;51060;42.640;24.356;2023-03-23T08:38:28;5.80;;;4.43;;
32824;SDS011;51060;42.640;24.356;2023-03-23T08:40:58;5.37;;;4.87;;
32824;SDS011;51060;42.640;24.356;2023-03-23T08:43:30;11.57;;;9.23;;
32824;SDS011;51060;42.640;24.356;2023-03-23T08:45:57;12.00;;;10.20;;
32824;SDS011;51060;42.640;24.356;2023-03-23T08:48:23;6.93;;;5.40;;
32824;SDS011;51060;42.640;24.356;2023-03-23T08:50:49;14.60;;;11.27;;
32824;SDS011;51060;42.640;24.356;2023-03-23T08:53:17;13.93;;;9.60;;
32824;SDS011;51060;42.640;24.356;2023-03-23T08:55:43;10.50;;;7.43;;
32824;SDS011;51060;42.640;24.356;2023-03-23T08:58:09;7.93;;;7.07;;
32824;SDS011;51060;42.640;24.356;2023-03-23T09:00:35;10.60;;;8.50;;
32824;SDS011;51060;42.640;24.356;2023-03-23T09:03:00;6.03;;;4.83;;
32824;SDS011;51060;42.640;24.356;2023-03-23T09:05:27;5.97;;;4.70;;
32824;SDS011;51060;42.640;24.356;2023-03-23T09:07:54;5.63;;;4.83;;
32824;SDS011;51060;42.640;24.356;2023-03-23T09:10:23;5.30;;;4.47;;
32824;SDS011;51060;42.640;24.356;2023-03-23T09:12:51;5.70;;;4.60;;
32824;SDS011;51060;42.640;24.356;2023-03-23T09:15:17;4.80;;;4.10;;
32824;SDS011;51060;42.640;24.356;2023-03-23T09:17:47;5.50;;;4.63;;
32824;SDS011;51060;42.640;24.356;2023-03-23T09:20:15;6.33;;;5.00;;
32824;SDS011;51060;42.640;24.356;2023-03-23T09:22:44;5.33;;;4.70;;
32824;SDS011;51060;42.640;24.356;2023-03-23T09:25:12;5.13;;;4.63;;
32824;SDS011;51060;42.640;24.356;2023-03-23T09:27:39;6.93;;;4.93;;
32824;SDS011;51060;42.640;24.356;2023-03-23T09:30:06;10.40;;;9.30;;
32824;SDS011;51060;42.640;24.356;2023-03-23T09:32:35;5.23;;;4.50;;
32824;SDS011;51060;42.640;24.356;2023-03-23T09:35:02;5.90;;;5.30;;
32824;SDS011;51060;42.640;24.356;2023-03-23T09:37:29;4.63;;;3.90;;
32824;SDS011;51060;42.640;24.356;2023-03-23T09:39:54;10.37;;;7.30;;
32824;SDS011;51060;42.640;24.356;2023-03-23T09:42:30;5.50;;;4.53;;
32824;SDS011;51060;42.640;24.356;2023-03-23T09:50:44;7.17;;;5.83;;
32824;SDS011;51060;42.640;24.356;2023-03-23T09:55:37;5.93;;;5.30;;
32824;SDS011;51060;42.640;24.356;2023-03-23T09:58:16;5.47;;;4.97;;
32824;SDS011;51060;42.640;24.356;2023-03-23T10:00:55;6.10;;;5.50;;
32824;SDS011;51060;42.640;24.356;2023-03-23T10:03:27;4.70;;;4.20;;
32824;SDS011;51060;42.640;24.356;2023-03-23T10:05:57;10.90;;;9.80;;
32824;SDS011;51060;42.640;24.356;2023-03-23T10:08:26;4.87;;;4.43;;
32824;SDS011;51060;42.640;24.356;2023-03-23T10:11:03;5.30;;;4.80;;
32824;SDS011;51060;42.640;24.356;2023-03-23T10:13:34;5.67;;;4.87;;
32824;SDS011;51060;42.640;24.356;2023-03-23T10:16:08;7.03;;;5.83;;
32824;SDS011;51060;42.640;24.356;2023-03-23T10:21:19;5.00;;;3.70;;
32824;SDS011;51060;42.640;24.356;2023-03-23T10:31:33;7.80;;;6.20;;
32824;SDS011;51060;42.640;24.356;2023-03-23T10:34:12;5.13;;;3.83;;
32824;SDS011;51060;42.640;24.356;2023-03-23T10:37:05;5.10;;;3.53;;
32824;SDS011;51060;42.640;24.356;2023-03-23T10:39:37;5.23;;;3.73;;
32824;SDS011;51060;42.640;24.356;2023-03-23T10:42:08;5.17;;;4.20;;
32824;SDS011;51060;42.640;24.356;2023-03-23T10:44:36;6.00;;;4.40;;
32824;SDS011;51060;42.640;24.356;2023-03-23T10:47:04;4.60;;;3.90;;
32824;SDS011;51060;42.640;24.356;2023-03-23T10:49:38;8.07;;;5.90;;
32824;SDS011;51060;42.640;24.356;2023-03-23T10:54:54;12.20;;;8.00;;
32824;SDS011;51060;42.640;24.356;2023-03-23T10:57:28;19.07;;;11.50;;
32824;SDS011;51060;42.640;24.356;2023-03-23T10:59:59;15.25;;;10.85;;
32824;SDS011;51060;42.640;24.356;2023-03-23T11:02:31;5.77;;;4.40;;
32824;SDS011;51060;42.640;24.356;2023-03-23T11:05:03;4.87;;;4.27;;
32824;SDS011;51060;42.640;24.356;2023-03-23T11:07:35;8.53;;;6.30;;
32824;SDS011;51060;42.640;24.356;2023-03-23T11:10:18;6.17;;;4.40;;
32824;SDS011;51060;42.640;24.356;2023-03-23T11:12:50;3.23;;;2.93;;
32824;SDS011;51060;42.640;24.356;2023-03-23T11:17:56;4.90;;;4.40;;
32824;SDS011;51060;42.640;24.356;2023-03-23T11:20:24;4.00;;;3.30;;
32824;SDS011;51060;42.640;24.356;2023-03-23T11:22:51;7.40;;;5.40;;
32824;SDS011;51060;42.640;24.356;2023-03-23T11:25:17;5.40;;;3.40;;
32824;SDS011;51060;42.640;24.356;2023-03-23T11:27:43;3.23;;;2.90;;
32824;SDS011;51060;42.640;24.356;2023-03-23T11:30:25;3.30;;;3.00;;
32824;SDS011;51060;42.640;24.356;2023-03-23T11:32:54;4.90;;;4.47;;
32824;SDS011;51060;42.640;24.356;2023-03-23T11:35:21;5.97;;;4.30;;
32824;SDS011;51060;42.640;24.356;2023-03-23T11:40:20;4.30;;;3.77;;
32824;SDS011;51060;42.640;24.356;2023-03-23T11:42:48;6.13;;;3.67;;
32824;SDS011;51060;42.640;24.356;2023-03-23T11:45:24;3.53;;;3.20;;
32824;SDS011;51060;42.640;24.356;2023-03-23T11:50:51;4.37;;;3.60;;
32824;SDS011;51060;42.640;24.356;2023-03-23T11:53:27;4.13;;;3.67;;
32824;SDS011;51060;42.640;24.356;2023-03-23T11:56:30;6.38;;;3.92;;
32824;SDS011;51060;42.640;24.356;2023-03-23T11:58:59;4.60;;;2.93;;
32824;SDS011;51060;42.640;24.356;2023-03-23T12:23:28;5.07;;;3.60;;
32824;SDS011;51060;42.640;24.356;2023-03-23T12:26:15;4.43;;;3.43;;
32824;SDS011;51060;42.640;24.356;2023-03-23T12:31:46;3.90;;;3.50;;
32824;SDS011;51060;42.640;24.356;2023-03-23T12:37:32;5.03;;;4.20;;
32824;SDS011;51060;42.640;24.356;2023-03-23T12:46:18;5.87;;;4.30;;
32824;SDS011;51060;42.640;24.356;2023-03-23T12:49:13;5.23;;;4.47;;
32824;SDS011;51060;42.640;24.356;2023-03-23T12:57:00;5.60;;;4.77;;
32824;SDS011;51060;42.640;24.356;2023-03-23T13:02:29;4.67;;;4.17;;
32824;SDS011;51060;42.640;24.356;2023-03-23T13:04:59;6.00;;;4.63;;
32824;SDS011;51060;42.640;24.356;2023-03-23T13:07:43;4.70;;;3.47;;
32824;SDS011;51060;42.640;24.356;2023-03-23T13:10:15;4.70;;;3.88;;
32824;SDS011;51060;42.640;24.356;2023-03-23T13:12:45;4.23;;;3.83;;
32824;SDS011;51060;42.640;24.356;2023-03-23T13:28:16;4.23;;;3.50;;
32824;SDS011;51060;42.640;24.356;2023-03-23T13:33:33;5.07;;;3.60;;
32824;SDS011;51060;42.640;24.356;2023-03-23T13:36:08;3.40;;;3.10;;
32824;SDS011;51060;42.640;24.356;2023-03-23T13:38:38;3.67;;;3.10;;
32824;SDS011;51060;42.640;24.356;2023-03-23T13:41:11;4.97;;;2.80;;
32824;SDS011;51060;42.640;24.356;2023-03-23T13:43:39;5.60;;;4.30;;
32824;SDS011;51060;42.640;24.356;2023-03-23T13:46:07;3.40;;;3.10;;
32824;SDS011;51060;42.640;24.356;2023-03-23T13:48:45;3.90;;;2.87;;
32824;SDS011;51060;42.640;24.356;2023-03-23T13:54:31;4.43;;;2.83;;
32824;SDS011;51060;42.640;24.356;2023-03-23T13:57:32;3.67;;;3.37;;
32824;SDS011;51060;42.640;24.356;2023-03-23T14:00:26;7.73;;;4.63;;
32824;SDS011;51060;42.640;24.356;2023-03-23T14:05:29;3.73;;;3.40;;
32824;SDS011;51060;42.640;24.356;2023-03-23T14:16:19;4.67;;;3.53;;
32824;SDS011;51060;42.640;24.356;2023-03-23T14:18:56;14.88;;;7.65;;
32824;SDS011;51060;42.640;24.356;2023-03-23T14:24:32;4.80;;;3.83;;
32824;SDS011;51060;42.640;24.356;2023-03-23T14:27:42;5.50;;;3.40;;
32824;SDS011;51060;42.640;24.356;2023-03-23T14:29:58;5.23;;;4.73;;
32824;SDS011;51060;42.640;24.356;2023-03-23T14:32:24;6.33;;;5.47;;
32824;SDS011;51060;42.640;24.356;2023-03-23T14:34:53;7.30;;;6.27;;
32824;SDS011;51060;42.640;24.356;2023-03-23T14:37:19;12.53;;;8.70;;
32824;SDS011;51060;42.640;24.356;2023-03-23T14:39:52;22.67;;;15.23;;
32824;SDS011;51060;42.640;24.356;2023-03-23T14:42:23;6.20;;;4.67;;
32824;SDS011;51060;42.640;24.356;2023-03-23T14:44:59;8.80;;;6.67;;
32824;SDS011;51060;42.640;24.356;2023-03-23T14:47:36;14.40;;;9.47;;
32824;SDS011;51060;42.640;24.356;2023-03-23T14:50:05;9.50;;;7.93;;
32824;SDS011;51060;42.640;24.356;2023-03-23T14:52:33;8.90;;;7.27;;
32824;SDS011;51060;42.640;24.356;2023-03-23T14:55:11;5.07;;;4.03;;
32824;SDS011;51060;42.640;24.356;2023-03-23T14:57:40;3.53;;;3.13;;
32824;SDS011;51060;42.640;24.356;2023-03-23T15:00:57;4.53;;;3.70;;
32824;SDS011;51060;42.640;24.356;2023-03-23T15:02:58;52.10;;;34.77;;
32824;SDS011;51060;42.640;24.356;2023-03-23T15:05:27;103.20;;;65.37;;
32824;SDS011;51060;42.640;24.356;2023-03-23T15:07:55;80.13;;;61.23;;
32824;SDS011;51060;42.640;24.356;2023-03-23T15:10:25;75.80;;;62.87;;
32824;SDS011;51060;42.640;24.356;2023-03-23T15:12:51;152.73;;;106.97;;
32824;SDS011;51060;42.640;24.356;2023-03-23T15:17:54;7.80;;;5.80;;
32824;SDS011;51060;42.640;24.356;2023-03-23T15:20:27;6.60;;;6.00;;
32824;SDS011;51060;42.640;24.356;2023-03-23T15:22:55;26.13;;;22.07;;
32824;SDS011;51060;42.640;24.356;2023-03-23T15:25:23;39.93;;;30.53;;
32824;SDS011;51060;42.640;24.356;2023-03-23T15:27:58;38.57;;;32.47;;
32824;SDS011;51060;42.640;24.356;2023-03-23T15:30:45;28.43;;;21.30;;
32824;SDS011;51060;42.640;24.356;2023-03-23T15:33:15;27.23;;;19.40;;
32824;SDS011;51060;42.640;24.356;2023-03-23T15:35:48;26.00;;;17.83;;
32824;SDS011;51060;42.640;24.356;2023-03-23T15:38:24;24.58;;;16.98;;
32824;SDS011;51060;42.640;24.356;2023-03-23T15:40:52;13.98;;;10.27;;
32824;SDS011;51060;42.640;24.356;2023-03-23T15:43:24;10.23;;;8.53;;
32824;SDS011;51060;42.640;24.356;2023-03-23T15:45:56;10.90;;;9.33;;
32824;SDS011;51060;42.640;24.356;2023-03-23T15:48:32;12.70;;;10.07;;
32824;SDS011;51060;42.640;24.356;2023-03-23T15:50:59;12.57;;;11.27;;
32824;SDS011;51060;42.640;24.356;2023-03-23T15:56:02;19.33;;;16.57;;
32824;SDS011;51060;42.640;24.356;2023-03-23T15:58:29;191.60;;;132.77;;
32824;SDS011;51060;42.640;24.356;2023-03-23T16:00:56;33.37;;;27.90;;
32824;SDS011;51060;42.640;24.356;2023-03-23T16:03:24;26.70;;;21.07;;
32824;SDS011;51060;42.640;24.356;2023-03-23T16:05:54;112.80;;;81.57;;
32824;SDS011;51060;42.640;24.356;2023-03-23T16:08:22;116.07;;;83.73;;
32824;SDS011;51060;42.640;24.356;2023-03-23T16:10:48;92.03;;;62.27;;
32824;SDS011;51060;42.640;24.356;2023-03-23T16:13:13;100.77;;;67.57;;
32824;SDS011;51060;42.640;24.356;2023-03-23T16:15:39;40.37;;;28.00;;
32824;SDS011;51060;42.640;24.356;2023-03-23T16:18:05;105.17;;;75.00;;
32824;SDS011;51060;42.640;24.356;2023-03-23T16:20:30;80.43;;;58.57;;
32824;SDS011;51060;42.640;24.356;2023-03-23T16:22:57;32.90;;;26.07;;
32824;SDS011;51060;42.640;24.356;2023-03-23T16:25:23;102.40;;;75.20;;
32824;SDS011;51060;42.640;24.356;2023-03-23T16:27:49;52.73;;;39.43;;
32824;SDS011;51060;42.640;24.356;2023-03-23T16:30:25;33.10;;;24.83;;
32824;SDS011;51060;42.640;24.356;2023-03-23T16:32:52;32.57;;;26.33;;
32824;SDS011;51060;42.640;24.356;2023-03-23T16:35:18;42.60;;;32.23;;
32824;SDS011;51060;42.640;24.356;2023-03-23T16:37:51;24.37;;;18.30;;
32824;SDS011;51060;42.640;24.356;2023-03-23T16:40:18;20.90;;;15.77;;
32824;SDS011;51060;42.640;24.356;2023-03-23T16:42:44;17.87;;;14.00;;
32824;SDS011;51060;42.640;24.356;2023-03-23T16:45:11;17.60;;;13.87;;
32824;SDS011;51060;42.640;24.356;2023-03-23T16:47:37;32.13;;;26.03;;
32824;SDS011;51060;42.640;24.356;2023-03-23T16:50:04;16.37;;;13.60;;
32824;SDS011;51060;42.640;24.356;2023-03-23T16:52:36;14.87;;;12.23;;
32824;SDS011;51060;42.640;24.356;2023-03-23T16:55:05;13.67;;;10.67;;